sensor_id;sensor_type;location;lat;lon;timestamp;temperature;humidity
57857;DHT22;43683;48.650;9.290;2023-04-29T00:02:07;11.20;95.50
57857;DHT22;43683;48.650;9.290;2023-04-29T00:04:32;11.20;95.50
57857;DHT22;43683;48.650;9.290;2023-04-29T00:06:59;11.20;95.50
57857;DHT22;43683;48.650;9.290;2023-04-29T00:09:24;11.10;95.50
57857;DHT22;43683;48.650;9.290;2023-04-29T00:11:50;11.10;95.60
57857;DHT22;43683;48.650;9.290;2023-04-29T00:14:16;11.00;95.60
57857;DHT22;43683;48.650;9.290;2023-04-29T00:16:41;11.00;95.60
57857;DHT22;43683;48.650;9.290;2023-04-29T00:19:07;11.00;95.70
57857;DHT22;43683;48.650;9.290;2023-04-29T00:21:32;10.90;95.70
57857;DHT22;43683;48.650;9.290;2023-04-29T00:23:58;10.90;95.70
57857;DHT22;43683;48.650;9.290;2023-04-29T00:26:24;10.80;95.80
57857;DHT22;43683;48.650;9.290;2023-04-29T00:28:50;10.70;95.90
57857;DHT22;43683;48.650;9.290;2023-04-29T00:31:15;10.60;95.90
57857;DHT22;43683;48.650;9.290;2023-04-29T00:33:41;10.50;96.00
57857;DHT22;43683;48.650;9.290;2023-04-29T00:36:07;10.40;96.30
57857;DHT22;43683;48.650;9.290;2023-04-29T00:38:34;10.50;96.00
57857;DHT22;43683;48.650;9.290;2023-04-29T00:40:59;10.60;96.00
57857;DHT22;43683;48.650;9.290;2023-04-29T00:43:25;10.60;95.90
57857;DHT22;43683;48.650;9.290;2023-04-29T00:45:50;10.60;95.80
57857;DHT22;43683;48.650;9.290;2023-04-29T00:48:16;10.60;95.80
57857;DHT22;43683;48.650;9.290;2023-04-29T00:50:42;10.50;95.90
57857;DHT22;43683;48.650;9.290;2023-04-29T00:53:09;10.40;95.90
57857;DHT22;43683;48.650;9.290;2023-04-29T00:55:37;10.30;95.90
57857;DHT22;43683;48.650;9.290;2023-04-29T00:58:03;10.20;96.10
57857;DHT22;43683;48.650;9.290;2023-04-29T01:00:29;10.10;96.10
57857;DHT22;43683;48.650;9.290;2023-04-29T01:02:55;10.10;96.10
57857;DHT22;43683;48.650;9.290;2023-04-29T01:05:22;10.10;96.20
57857;DHT22;43683;48.650;9.290;2023-04-29T01:07:55;10.00;96.10
57857;DHT22;43683;48.650;9.290;2023-04-29T01:10:28;9.90;96.10
57857;DHT22;43683;48.650;9.290;2023-04-29T01:13:06;9.90;96.10
57857;DHT22;43683;48.650;9.290;2023-04-29T01:15:48;9.90;96.10
57857;DHT22;43683;48.650;9.290;2023-04-29T01:18:28;9.90;96.10
57857;DHT22;43683;48.650;9.290;2023-04-29T01:20:56;10.10;96.00
57857;DHT22;43683;48.650;9.290;2023-04-29T01:23:25;10.10;95.90
57857;DHT22;43683;48.650;9.290;2023-04-29T01:25:51;10.00;95.80
57857;DHT22;43683;48.650;9.290;2023-04-29T01:33:47;9.90;95.90
57857;DHT22;43683;48.650;9.290;2023-04-29T01:36:35;9.80;96.00
57857;DHT22;43683;48.650;9.290;2023-04-29T01:39:18;9.60;96.20
57857;DHT22;43683;48.650;9.290;2023-04-29T01:41:56;9.60;96.20
57857;DHT22;43683;48.650;9.290;2023-04-29T01:44:23;9.50;96.20
57857;DHT22;43683;48.650;9.290;2023-04-29T01:46:52;9.50;96.20
57857;DHT22;43683;48.650;9.290;2023-04-29T01:49:25;9.50;96.20
57857;DHT22;43683;48.650;9.290;2023-04-29T01:51:51;9.50;96.20
57857;DHT22;43683;48.650;9.290;2023-04-29T01:54:16;9.40;96.20
57857;DHT22;43683;48.650;9.290;2023-04-29T01:56:42;9.40;96.20
57857;DHT22;43683;48.650;9.290;2023-04-29T01:59:08;9.50;96.20
57857;DHT22;43683;48.650;9.290;2023-04-29T02:01:34;9.40;96.10
57857;DHT22;43683;48.650;9.290;2023-04-29T02:03:59;9.30;96.10
57857;DHT22;43683;48.650;9.290;2023-04-29T02:06:25;9.20;96.30
57857;DHT22;43683;48.650;9.290;2023-04-29T02:08:52;9.10;96.30
57857;DHT22;43683;48.650;9.290;2023-04-29T02:11:17;9.10;96.40
57857;DHT22;43683;48.650;9.290;2023-04-29T02:13:43;9.10;96.30
57857;DHT22;43683;48.650;9.290;2023-04-29T02:16:10;9.10;96.70
57857;DHT22;43683;48.650;9.290;2023-04-29T02:18:35;9.10;96.70
57857;DHT22;43683;48.650;9.290;2023-04-29T02:21:01;9.10;96.30
57857;DHT22;43683;48.650;9.290;2023-04-29T02:23:27;9.30;96.10
57857;DHT22;43683;48.650;9.290;2023-04-29T02:25:53;9.40;95.90
57857;DHT22;43683;48.650;9.290;2023-04-29T02:28:19;9.40;95.90
57857;DHT22;43683;48.650;9.290;2023-04-29T02:30:45;9.40;95.90
57857;DHT22;43683;48.650;9.290;2023-04-29T02:33:10;9.40;96.00
57857;DHT22;43683;48.650;9.290;2023-04-29T02:35:36;9.30;96.10
57857;DHT22;43683;48.650;9.290;2023-04-29T02:38:01;9.40;96.10
57857;DHT22;43683;48.650;9.290;2023-04-29T02:40:27;9.50;95.90
57857;DHT22;43683;48.650;9.290;2023-04-29T02:42:53;9.50;95.90
57857;DHT22;43683;48.650;9.290;2023-04-29T02:45:19;9.50;95.90
57857;DHT22;43683;48.650;9.290;2023-04-29T02:47:44;9.40;95.90
57857;DHT22;43683;48.650;9.290;2023-04-29T02:50:10;9.40;96.10
57857;DHT22;43683;48.650;9.290;2023-04-29T02:52:35;9.40;96.10
57857;DHT22;43683;48.650;9.290;2023-04-29T02:55:01;9.20;96.20
57857;DHT22;43683;48.650;9.290;2023-04-29T02:57:26;9.20;96.30
57857;DHT22;43683;48.650;9.290;2023-04-29T02:59:54;9.30;96.20
57857;DHT22;43683;48.650;9.290;2023-04-29T03:02:19;9.20;96.30
57857;DHT22;43683;48.650;9.290;2023-04-29T03:04:45;9.30;96.30
57857;DHT22;43683;48.650;9.290;2023-04-29T03:07:11;9.20;96.20
57857;DHT22;43683;48.650;9.290;2023-04-29T03:09:36;9.10;96.30
57857;DHT22;43683;48.650;9.290;2023-04-29T03:12:02;9.00;96.40
57857;DHT22;43683;48.650;9.290;2023-04-29T03:14:28;9.00;96.50
57857;DHT22;43683;48.650;9.290;2023-04-29T03:16:53;8.90;96.50
57857;DHT22;43683;48.650;9.290;2023-04-29T03:19:20;8.80;96.60
57857;DHT22;43683;48.650;9.290;2023-04-29T03:21:46;8.80;96.60
57857;DHT22;43683;48.650;9.290;2023-04-29T03:24:12;8.80;96.60
57857;DHT22;43683;48.650;9.290;2023-04-29T03:26:38;8.80;96.70
57857;DHT22;43683;48.650;9.290;2023-04-29T03:29:03;8.80;96.70
57857;DHT22;43683;48.650;9.290;2023-04-29T03:31:29;8.80;96.60
57857;DHT22;43683;48.650;9.290;2023-04-29T03:33:54;8.80;96.60
57857;DHT22;43683;48.650;9.290;2023-04-29T03:36:20;8.80;96.60
57857;DHT22;43683;48.650;9.290;2023-04-29T03:38:45;8.80;96.50
57857;DHT22;43683;48.650;9.290;2023-04-29T03:41:11;8.80;96.50
57857;DHT22;43683;48.650;9.290;2023-04-29T03:43:36;8.80;96.40
57857;DHT22;43683;48.650;9.290;2023-04-29T03:46:02;8.80;96.40
57857;DHT22;43683;48.650;9.290;2023-04-29T03:48:27;8.80;96.30
57857;DHT22;43683;48.650;9.290;2023-04-29T03:50:53;8.90;96.20
57857;DHT22;43683;48.650;9.290;2023-04-29T03:53:19;8.90;96.10
57857;DHT22;43683;48.650;9.290;2023-04-29T03:55:46;8.90;96.10
57857;DHT22;43683;48.650;9.290;2023-04-29T03:58:12;8.80;96.10
57857;DHT22;43683;48.650;9.290;2023-04-29T04:00:38;8.90;96.20
57857;DHT22;43683;48.650;9.290;2023-04-29T04:03:04;8.80;96.20
57857;DHT22;43683;48.650;9.290;2023-04-29T04:05:29;8.70;96.20
57857;DHT22;43683;48.650;9.290;2023-04-29T04:07:55;8.60;96.30
57857;DHT22;43683;48.650;9.290;2023-04-29T04:10:21;8.50;96.40
57857;DHT22;43683;48.650;9.290;2023-04-29T04:12:47;8.60;96.50
57857;DHT22;43683;48.650;9.290;2023-04-29T04:15:12;8.50;96.40
57857;DHT22;43683;48.650;9.290;2023-04-29T04:17:38;8.50;96.40
57857;DHT22;43683;48.650;9.290;2023-04-29T04:20:04;8.40;96.50
57857;DHT22;43683;48.650;9.290;2023-04-29T04:22:30;8.40;96.50
57857;DHT22;43683;48.650;9.290;2023-04-29T04:24:55;8.40;96.60
57857;DHT22;43683;48.650;9.290;2023-04-29T04:27:21;8.30;96.70
57857;DHT22;43683;48.650;9.290;2023-04-29T04:29:47;8.30;96.60
57857;DHT22;43683;48.650;9.290;2023-04-29T04:32:12;8.20;96.60
57857;DHT22;43683;48.650;9.290;2023-04-29T04:34:38;8.30;96.60
57857;DHT22;43683;48.650;9.290;2023-04-29T04:37:04;8.30;96.50
57857;DHT22;43683;48.650;9.290;2023-04-29T04:39:31;8.30;96.40
57857;DHT22;43683;48.650;9.290;2023-04-29T04:41:56;8.40;96.40
57857;DHT22;43683;48.650;9.290;2023-04-29T04:44:22;8.50;96.30
57857;DHT22;43683;48.650;9.290;2023-04-29T04:46:47;8.50;96.10
57857;DHT22;43683;48.650;9.290;2023-04-29T04:49:13;8.50;96.00
57857;DHT22;43683;48.650;9.290;2023-04-29T04:51:38;8.70;96.00
57857;DHT22;43683;48.650;9.290;2023-04-29T04:54:04;8.80;95.80
57857;DHT22;43683;48.650;9.290;2023-04-29T04:56:29;8.90;95.60
57857;DHT22;43683;48.650;9.290;2023-04-29T04:58:55;9.00;95.60
57857;DHT22;43683;48.650;9.290;2023-04-29T05:01:20;9.10;95.50
57857;DHT22;43683;48.650;9.290;2023-04-29T05:03:46;9.20;95.50
57857;DHT22;43683;48.650;9.290;2023-04-29T05:06:11;9.20;95.40
57857;DHT22;43683;48.650;9.290;2023-04-29T05:08:37;9.30;95.50
57857;DHT22;43683;48.650;9.290;2023-04-29T05:11:02;9.30;95.50
57857;DHT22;43683;48.650;9.290;2023-04-29T05:13:28;9.40;95.50
57857;DHT22;43683;48.650;9.290;2023-04-29T05:15:53;9.40;95.40
57857;DHT22;43683;48.650;9.290;2023-04-29T05:18:19;9.40;95.50
57857;DHT22;43683;48.650;9.290;2023-04-29T05:20:45;9.40;95.50
57857;DHT22;43683;48.650;9.290;2023-04-29T05:23:10;9.40;95.70
57857;DHT22;43683;48.650;9.290;2023-04-29T05:25:36;9.30;95.80
57857;DHT22;43683;48.650;9.290;2023-04-29T05:28:02;9.30;96.00
57857;DHT22;43683;48.650;9.290;2023-04-29T05:30:28;9.30;96.00
57857;DHT22;43683;48.650;9.290;2023-04-29T05:32:54;9.40;96.10
57857;DHT22;43683;48.650;9.290;2023-04-29T05:35:20;9.40;96.10
57857;DHT22;43683;48.650;9.290;2023-04-29T05:37:46;9.50;96.00
57857;DHT22;43683;48.650;9.290;2023-04-29T05:40:12;9.60;96.00
57857;DHT22;43683;48.650;9.290;2023-04-29T05:42:37;9.70;95.90
57857;DHT22;43683;48.650;9.290;2023-04-29T05:45:03;9.80;95.90
57857;DHT22;43683;48.650;9.290;2023-04-29T05:47:28;9.90;95.80
57857;DHT22;43683;48.650;9.290;2023-04-29T05:49:54;10.10;95.80
57857;DHT22;43683;48.650;9.290;2023-04-29T05:52:19;10.30;95.60
57857;DHT22;43683;48.650;9.290;2023-04-29T05:54:45;10.80;95.30
57857;DHT22;43683;48.650;9.290;2023-04-29T05:57:10;11.70;94.00
57857;DHT22;43683;48.650;9.290;2023-04-29T05:59:36;11.90;93.60
57857;DHT22;43683;48.650;9.290;2023-04-29T06:02:01;12.10;93.70
57857;DHT22;43683;48.650;9.290;2023-04-29T06:04:27;12.40;93.70
57857;DHT22;43683;48.650;9.290;2023-04-29T06:06:54;12.70;93.50
57857;DHT22;43683;48.650;9.290;2023-04-29T06:09:21;12.90;93.40
57857;DHT22;43683;48.650;9.290;2023-04-29T06:11:49;13.10;93.40
57857;DHT22;43683;48.650;9.290;2023-04-29T06:14:15;13.60;92.90
57857;DHT22;43683;48.650;9.290;2023-04-29T06:16:41;13.70;92.70
57857;DHT22;43683;48.650;9.290;2023-04-29T06:19:06;13.40;93.20
57857;DHT22;43683;48.650;9.290;2023-04-29T06:21:32;13.40;93.50
57857;DHT22;43683;48.650;9.290;2023-04-29T06:23:57;13.70;93.10
57857;DHT22;43683;48.650;9.290;2023-04-29T06:26:23;13.80;92.80
57857;DHT22;43683;48.650;9.290;2023-04-29T06:28:49;13.60;93.30
57857;DHT22;43683;48.650;9.290;2023-04-29T06:31:15;13.50;93.80
57857;DHT22;43683;48.650;9.290;2023-04-29T06:33:41;13.40;94.20
57857;DHT22;43683;48.650;9.290;2023-04-29T06:36:06;13.60;94.30
57857;DHT22;43683;48.650;9.290;2023-04-29T06:38:32;13.90;94.10
57857;DHT22;43683;48.650;9.290;2023-04-29T06:40:58;13.90;94.20
57857;DHT22;43683;48.650;9.290;2023-04-29T06:43:30;14.20;94.20
57857;DHT22;43683;48.650;9.290;2023-04-29T06:45:56;14.60;94.10
57857;DHT22;43683;48.650;9.290;2023-04-29T06:48:21;14.80;93.80
57857;DHT22;43683;48.650;9.290;2023-04-29T06:50:55;15.10;93.30
57857;DHT22;43683;48.650;9.290;2023-04-29T06:53:21;15.20;92.80
57857;DHT22;43683;48.650;9.290;2023-04-29T06:55:47;15.00;92.80
57857;DHT22;43683;48.650;9.290;2023-04-29T06:58:13;14.90;92.90
57857;DHT22;43683;48.650;9.290;2023-04-29T07:00:39;14.80;93.00
57857;DHT22;43683;48.650;9.290;2023-04-29T07:03:05;15.00;92.90
57857;DHT22;43683;48.650;9.290;2023-04-29T07:05:30;15.20;92.50
57857;DHT22;43683;48.650;9.290;2023-04-29T07:07:56;15.00;92.40
57857;DHT22;43683;48.650;9.290;2023-04-29T07:10:22;14.90;92.50
57857;DHT22;43683;48.650;9.290;2023-04-29T07:12:47;14.90;92.60
57857;DHT22;43683;48.650;9.290;2023-04-29T07:15:13;14.90;92.50
57857;DHT22;43683;48.650;9.290;2023-04-29T07:17:38;15.10;92.30
57857;DHT22;43683;48.650;9.290;2023-04-29T07:20:04;15.30;91.90
57857;DHT22;43683;48.650;9.290;2023-04-29T07:22:31;15.40;91.80
57857;DHT22;43683;48.650;9.290;2023-04-29T07:24:56;15.30;91.70
57857;DHT22;43683;48.650;9.290;2023-04-29T07:27:22;15.00;91.90
57857;DHT22;43683;48.650;9.290;2023-04-29T07:29:48;15.00;92.20
57857;DHT22;43683;48.650;9.290;2023-04-29T07:32:14;15.20;92.20
57857;DHT22;43683;48.650;9.290;2023-04-29T07:34:40;15.30;92.30
57857;DHT22;43683;48.650;9.290;2023-04-29T07:37:06;15.40;92.10
57857;DHT22;43683;48.650;9.290;2023-04-29T07:39:31;15.60;92.00
57857;DHT22;43683;48.650;9.290;2023-04-29T07:41:57;15.90;92.00
57857;DHT22;43683;48.650;9.290;2023-04-29T07:44:24;16.10;91.90
57857;DHT22;43683;48.650;9.290;2023-04-29T07:46:49;16.20;91.90
57857;DHT22;43683;48.650;9.290;2023-04-29T07:49:15;16.30;91.80
57857;DHT22;43683;48.650;9.290;2023-04-29T07:51:41;16.50;91.60
57857;DHT22;43683;48.650;9.290;2023-04-29T07:54:07;16.70;91.30
57857;DHT22;43683;48.650;9.290;2023-04-29T07:56:32;17.00;90.90
57857;DHT22;43683;48.650;9.290;2023-04-29T07:58:59;17.30;90.30
57857;DHT22;43683;48.650;9.290;2023-04-29T08:01:25;17.90;88.60
57857;DHT22;43683;48.650;9.290;2023-04-29T08:03:51;18.60;87.80
57857;DHT22;43683;48.650;9.290;2023-04-29T08:06:16;18.80;84.90
57857;DHT22;43683;48.650;9.290;2023-04-29T08:08:45;19.10;82.70
57857;DHT22;43683;48.650;9.290;2023-04-29T08:11:17;18.90;80.60
57857;DHT22;43683;48.650;9.290;2023-04-29T08:13:44;18.80;78.90
57857;DHT22;43683;48.650;9.290;2023-04-29T08:16:10;18.50;79.30
57857;DHT22;43683;48.650;9.290;2023-04-29T08:18:35;18.80;79.20
57857;DHT22;43683;48.650;9.290;2023-04-29T08:21:01;18.70;78.30
57857;DHT22;43683;48.650;9.290;2023-04-29T08:23:27;18.70;77.70
57857;DHT22;43683;48.650;9.290;2023-04-29T08:25:52;18.60;77.70
57857;DHT22;43683;48.650;9.290;2023-04-29T08:28:23;18.70;77.40
57857;DHT22;43683;48.650;9.290;2023-04-29T08:30:49;18.70;77.00
57857;DHT22;43683;48.650;9.290;2023-04-29T08:33:14;19.00;76.40
57857;DHT22;43683;48.650;9.290;2023-04-29T08:35:41;19.30;75.30
57857;DHT22;43683;48.650;9.290;2023-04-29T08:38:07;19.30;74.90
57857;DHT22;43683;48.650;9.290;2023-04-29T08:40:41;19.80;74.20
57857;DHT22;43683;48.650;9.290;2023-04-29T08:43:09;20.40;72.40
57857;DHT22;43683;48.650;9.290;2023-04-29T08:45:35;20.50;71.80
57857;DHT22;43683;48.650;9.290;2023-04-29T08:48:07;20.30;72.00
57857;DHT22;43683;48.650;9.290;2023-04-29T08:50:38;20.10;71.80
57857;DHT22;43683;48.650;9.290;2023-04-29T08:53:05;19.80;71.60
57857;DHT22;43683;48.650;9.290;2023-04-29T08:55:36;19.50;71.90
57857;DHT22;43683;48.650;9.290;2023-04-29T08:58:05;19.50;71.70
57857;DHT22;43683;48.650;9.290;2023-04-29T09:00:31;19.40;71.30
57857;DHT22;43683;48.650;9.290;2023-04-29T09:02:58;19.40;70.30
57857;DHT22;43683;48.650;9.290;2023-04-29T09:05:25;19.50;70.70
57857;DHT22;43683;48.650;9.290;2023-04-29T09:07:51;19.70;70.00
57857;DHT22;43683;48.650;9.290;2023-04-29T09:10:17;19.50;69.60
57857;DHT22;43683;48.650;9.290;2023-04-29T09:12:43;19.50;69.60
57857;DHT22;43683;48.650;9.290;2023-04-29T09:15:10;19.50;69.10
57857;DHT22;43683;48.650;9.290;2023-04-29T09:17:43;19.30;69.10
57857;DHT22;43683;48.650;9.290;2023-04-29T09:25:14;20.30;66.80
57857;DHT22;43683;48.650;9.290;2023-04-29T09:27:40;20.40;66.60
57857;DHT22;43683;48.650;9.290;2023-04-29T09:30:06;20.50;66.10
57857;DHT22;43683;48.650;9.290;2023-04-29T09:32:32;20.70;65.60
57857;DHT22;43683;48.650;9.290;2023-04-29T09:34:57;21.00;65.00
57857;DHT22;43683;48.650;9.290;2023-04-29T09:37:24;21.30;64.20
57857;DHT22;43683;48.650;9.290;2023-04-29T09:39:51;21.30;63.80
57857;DHT22;43683;48.650;9.290;2023-04-29T09:42:17;21.20;63.70
57857;DHT22;43683;48.650;9.290;2023-04-29T09:44:43;20.90;64.00
57857;DHT22;43683;48.650;9.290;2023-04-29T09:47:10;21.10;63.70
57857;DHT22;43683;48.650;9.290;2023-04-29T09:49:40;21.20;63.80
57857;DHT22;43683;48.650;9.290;2023-04-29T09:52:12;21.40;63.30
57857;DHT22;43683;48.650;9.290;2023-04-29T09:54:39;20.80;63.50
57857;DHT22;43683;48.650;9.290;2023-04-29T09:57:06;20.40;64.40
57857;DHT22;43683;48.650;9.290;2023-04-29T09:59:33;20.30;64.30
57857;DHT22;43683;48.650;9.290;2023-04-29T10:02:01;20.00;64.50
57857;DHT22;43683;48.650;9.290;2023-04-29T10:04:28;19.60;64.90
57857;DHT22;43683;48.650;9.290;2023-04-29T10:06:55;19.30;65.60
57857;DHT22;43683;48.650;9.290;2023-04-29T10:09:22;19.10;66.40
57857;DHT22;43683;48.650;9.290;2023-04-29T10:11:50;18.50;67.30
57857;DHT22;43683;48.650;9.290;2023-04-29T10:14:17;18.50;68.00
57857;DHT22;43683;48.650;9.290;2023-04-29T10:17:03;19.00;67.10
57857;DHT22;43683;48.650;9.290;2023-04-29T10:19:40;19.70;65.50
57857;DHT22;43683;48.650;9.290;2023-04-29T10:22:18;19.70;65.00
57857;DHT22;43683;48.650;9.290;2023-04-29T10:24:47;19.50;65.10
57857;DHT22;43683;48.650;9.290;2023-04-29T10:27:13;19.30;65.40
57857;DHT22;43683;48.650;9.290;2023-04-29T10:29:40;19.20;65.40
57857;DHT22;43683;48.650;9.290;2023-04-29T10:32:08;18.90;65.50
57857;DHT22;43683;48.650;9.290;2023-04-29T10:34:36;19.00;65.10
57857;DHT22;43683;48.650;9.290;2023-04-29T10:37:04;19.10;64.70
57857;DHT22;43683;48.650;9.290;2023-04-29T10:39:40;19.20;64.30
57857;DHT22;43683;48.650;9.290;2023-04-29T10:42:19;19.30;64.20
57857;DHT22;43683;48.650;9.290;2023-04-29T10:53:18;21.40;60.00
57857;DHT22;43683;48.650;9.290;2023-04-29T10:55:49;21.00;60.70
57857;DHT22;43683;48.650;9.290;2023-04-29T10:58:45;20.50;61.30
57857;DHT22;43683;48.650;9.290;2023-04-29T11:01:13;20.20;61.80
57857;DHT22;43683;48.650;9.290;2023-04-29T11:03:46;20.50;62.00
57857;DHT22;43683;48.650;9.290;2023-04-29T11:06:13;20.40;61.70
57857;DHT22;43683;48.650;9.290;2023-04-29T11:08:38;20.30;62.10
57857;DHT22;43683;48.650;9.290;2023-04-29T11:11:05;20.40;61.80
57857;DHT22;43683;48.650;9.290;2023-04-29T11:13:38;20.50;61.10
57857;DHT22;43683;48.650;9.290;2023-04-29T11:16:08;20.60;60.30
57857;DHT22;43683;48.650;9.290;2023-04-29T11:18:36;21.10;59.00
57857;DHT22;43683;48.650;9.290;2023-04-29T11:23:33;20.80;59.70
57857;DHT22;43683;48.650;9.290;2023-04-29T11:26:00;20.60;59.90
57857;DHT22;43683;48.650;9.290;2023-04-29T11:28:26;21.00;59.20
57857;DHT22;43683;48.650;9.290;2023-04-29T11:30:52;21.40;58.80
57857;DHT22;43683;48.650;9.290;2023-04-29T11:33:21;21.50;58.50
57857;DHT22;43683;48.650;9.290;2023-04-29T11:35:47;21.10;58.90
57857;DHT22;43683;48.650;9.290;2023-04-29T11:38:13;21.00;59.50
57857;DHT22;43683;48.650;9.290;2023-04-29T11:40:47;20.90;59.50
57857;DHT22;43683;48.650;9.290;2023-04-29T11:43:18;20.70;59.40
57857;DHT22;43683;48.650;9.290;2023-04-29T11:45:48;20.60;59.00
57857;DHT22;43683;48.650;9.290;2023-04-29T11:48:20;20.40;59.30
57857;DHT22;43683;48.650;9.290;2023-04-29T11:50:46;20.80;58.80
57857;DHT22;43683;48.650;9.290;2023-04-29T11:53:13;21.20;58.40
57857;DHT22;43683;48.650;9.290;2023-04-29T11:55:41;21.80;57.20
57857;DHT22;43683;48.650;9.290;2023-04-29T11:58:07;22.00;56.20
57857;DHT22;43683;48.650;9.290;2023-04-29T12:00:32;22.00;56.00
57857;DHT22;43683;48.650;9.290;2023-04-29T12:02:59;21.90;55.90
57857;DHT22;43683;48.650;9.290;2023-04-29T12:05:25;21.50;56.10
57857;DHT22;43683;48.650;9.290;2023-04-29T12:07:50;21.40;56.40
57857;DHT22;43683;48.650;9.290;2023-04-29T12:10:16;21.20;56.80
57857;DHT22;43683;48.650;9.290;2023-04-29T12:12:42;21.10;56.70
57857;DHT22;43683;48.650;9.290;2023-04-29T12:15:09;21.30;56.50
57857;DHT22;43683;48.650;9.290;2023-04-29T12:17:35;21.20;56.40
57857;DHT22;43683;48.650;9.290;2023-04-29T12:20:01;21.50;56.00
57857;DHT22;43683;48.650;9.290;2023-04-29T12:22:33;21.30;55.80
57857;DHT22;43683;48.650;9.290;2023-04-29T12:24:58;21.00;56.30
57857;DHT22;43683;48.650;9.290;2023-04-29T12:27:24;20.80;56.30
57857;DHT22;43683;48.650;9.290;2023-04-29T12:29:51;20.80;56.30
57857;DHT22;43683;48.650;9.290;2023-04-29T12:32:20;20.40;56.40
57857;DHT22;43683;48.650;9.290;2023-04-29T12:34:46;20.30;56.60
57857;DHT22;43683;48.650;9.290;2023-04-29T12:37:12;20.00;57.10
57857;DHT22;43683;48.650;9.290;2023-04-29T12:39:38;20.20;56.00
57857;DHT22;43683;48.650;9.290;2023-04-29T12:42:03;20.50;55.30
57857;DHT22;43683;48.650;9.290;2023-04-29T12:44:37;20.50;55.40
57857;DHT22;43683;48.650;9.290;2023-04-29T12:47:10;21.00;54.80
57857;DHT22;43683;48.650;9.290;2023-04-29T12:49:36;21.10;55.00
57857;DHT22;43683;48.650;9.290;2023-04-29T12:52:02;21.10;55.10
57857;DHT22;43683;48.650;9.290;2023-04-29T12:54:29;21.20;55.00
57857;DHT22;43683;48.650;9.290;2023-04-29T12:56:55;20.90;55.10
57857;DHT22;43683;48.650;9.290;2023-04-29T12:59:21;20.60;55.60
57857;DHT22;43683;48.650;9.290;2023-04-29T13:01:46;20.50;55.70
57857;DHT22;43683;48.650;9.290;2023-04-29T13:04:12;20.30;55.90
57857;DHT22;43683;48.650;9.290;2023-04-29T13:06:37;20.10;56.10
57857;DHT22;43683;48.650;9.290;2023-04-29T13:09:05;20.00;56.00
57857;DHT22;43683;48.650;9.290;2023-04-29T13:11:31;19.90;55.80
57857;DHT22;43683;48.650;9.290;2023-04-29T13:13:56;19.90;55.80
57857;DHT22;43683;48.650;9.290;2023-04-29T13:16:22;19.90;56.00
57857;DHT22;43683;48.650;9.290;2023-04-29T13:18:49;20.00;55.90
57857;DHT22;43683;48.650;9.290;2023-04-29T13:21:14;19.90;55.80
57857;DHT22;43683;48.650;9.290;2023-04-29T13:23:40;19.80;56.00
57857;DHT22;43683;48.650;9.290;2023-04-29T13:26:06;19.80;56.10
57857;DHT22;43683;48.650;9.290;2023-04-29T13:28:33;19.40;56.50
57857;DHT22;43683;48.650;9.290;2023-04-29T13:30:59;19.40;56.40
57857;DHT22;43683;48.650;9.290;2023-04-29T13:33:24;19.20;56.40
57857;DHT22;43683;48.650;9.290;2023-04-29T13:35:50;19.20;56.40
57857;DHT22;43683;48.650;9.290;2023-04-29T13:38:15;19.50;56.30
57857;DHT22;43683;48.650;9.290;2023-04-29T13:40:41;19.70;55.90
57857;DHT22;43683;48.650;9.290;2023-04-29T13:43:07;19.60;56.00
57857;DHT22;43683;48.650;9.290;2023-04-29T13:45:33;19.50;56.40
57857;DHT22;43683;48.650;9.290;2023-04-29T13:47:59;19.40;56.60
57857;DHT22;43683;48.650;9.290;2023-04-29T13:50:25;19.20;57.00
57857;DHT22;43683;48.650;9.290;2023-04-29T13:52:51;19.10;57.20
57857;DHT22;43683;48.650;9.290;2023-04-29T13:55:16;19.30;57.40
57857;DHT22;43683;48.650;9.290;2023-04-29T13:57:42;19.50;56.90
57857;DHT22;43683;48.650;9.290;2023-04-29T14:00:08;19.60;56.70
57857;DHT22;43683;48.650;9.290;2023-04-29T14:02:33;19.80;56.40
57857;DHT22;43683;48.650;9.290;2023-04-29T14:04:59;19.90;56.30
57857;DHT22;43683;48.650;9.290;2023-04-29T14:07:24;20.10;56.20
57857;DHT22;43683;48.650;9.290;2023-04-29T14:09:50;20.40;56.20
57857;DHT22;43683;48.650;9.290;2023-04-29T14:12:16;20.80;55.70
57857;DHT22;43683;48.650;9.290;2023-04-29T14:14:41;20.70;55.40
57857;DHT22;43683;48.650;9.290;2023-04-29T14:17:07;20.00;56.10
57857;DHT22;43683;48.650;9.290;2023-04-29T14:19:33;19.70;56.70
57857;DHT22;43683;48.650;9.290;2023-04-29T14:21:58;19.50;56.60
57857;DHT22;43683;48.650;9.290;2023-04-29T14:24:24;19.40;56.90
57857;DHT22;43683;48.650;9.290;2023-04-29T14:26:49;19.90;56.40
57857;DHT22;43683;48.650;9.290;2023-04-29T14:29:16;19.80;56.10
57857;DHT22;43683;48.650;9.290;2023-04-29T14:31:42;20.00;55.70
57857;DHT22;43683;48.650;9.290;2023-04-29T14:34:07;20.10;55.60
57857;DHT22;43683;48.650;9.290;2023-04-29T14:36:33;20.40;55.60
57857;DHT22;43683;48.650;9.290;2023-04-29T14:38:58;20.60;55.00
57857;DHT22;43683;48.650;9.290;2023-04-29T14:41:25;20.30;55.20
57857;DHT22;43683;48.650;9.290;2023-04-29T14:43:51;20.20;55.90
57857;DHT22;43683;48.650;9.290;2023-04-29T14:46:16;20.00;55.80
57857;DHT22;43683;48.650;9.290;2023-04-29T14:48:42;19.70;56.00
57857;DHT22;43683;48.650;9.290;2023-04-29T14:51:08;19.30;56.30
57857;DHT22;43683;48.650;9.290;2023-04-29T14:53:33;19.00;56.60
57857;DHT22;43683;48.650;9.290;2023-04-29T14:55:59;19.30;57.30
57857;DHT22;43683;48.650;9.290;2023-04-29T14:58:25;19.40;55.90
57857;DHT22;43683;48.650;9.290;2023-04-29T15:00:50;20.00;55.40
57857;DHT22;43683;48.650;9.290;2023-04-29T15:03:17;19.80;55.10
57857;DHT22;43683;48.650;9.290;2023-04-29T15:05:42;19.80;55.30
57857;DHT22;43683;48.650;9.290;2023-04-29T15:08:08;19.80;55.40
57857;DHT22;43683;48.650;9.290;2023-04-29T15:10:34;19.70;55.90
57857;DHT22;43683;48.650;9.290;2023-04-29T15:13:00;19.90;55.40
57857;DHT22;43683;48.650;9.290;2023-04-29T15:15:26;19.50;55.30
57857;DHT22;43683;48.650;9.290;2023-04-29T15:17:51;19.10;56.00
57857;DHT22;43683;48.650;9.290;2023-04-29T15:20:17;19.10;55.90
57857;DHT22;43683;48.650;9.290;2023-04-29T15:22:42;18.70;56.20
57857;DHT22;43683;48.650;9.290;2023-04-29T15:25:08;18.70;56.50
57857;DHT22;43683;48.650;9.290;2023-04-29T15:27:36;18.30;56.70
57857;DHT22;43683;48.650;9.290;2023-04-29T15:30:03;18.10;57.20
57857;DHT22;43683;48.650;9.290;2023-04-29T15:32:29;18.00;57.20
57857;DHT22;43683;48.650;9.290;2023-04-29T15:35:01;17.80;57.50
57857;DHT22;43683;48.650;9.290;2023-04-29T15:37:28;17.70;57.50
57857;DHT22;43683;48.650;9.290;2023-04-29T15:39:54;17.80;57.60
57857;DHT22;43683;48.650;9.290;2023-04-29T15:42:20;17.40;57.80
57857;DHT22;43683;48.650;9.290;2023-04-29T15:44:45;17.30;58.20
57857;DHT22;43683;48.650;9.290;2023-04-29T15:47:11;17.30;58.30
57857;DHT22;43683;48.650;9.290;2023-04-29T15:49:38;17.20;58.20
57857;DHT22;43683;48.650;9.290;2023-04-29T15:52:04;17.00;58.60
57857;DHT22;43683;48.650;9.290;2023-04-29T15:54:30;17.00;58.70